Time;durP1;ratioP1;P1;durP2;ratioP2;P2;SDS_P1;SDS_P2;PMS_P1;PMS_P2;Temp;Humidity;BMP_temperature;BMP_pressure;BME280_temperature;BME280_humidity;BME280_pressure;Samples;Min_cycle;Max_cycle;Signal;HPM_P1;HPM_P2
2022/07/08 00:00:42;;;;;;;5.38;0.90;;;14.80;99.90;;;;;;5037407;28;20057;-81
2022/07/08 00:03:07;;;;;;;5.68;0.80;;;14.70;99.90;;;;;;5012897;28;20041;-81
2022/07/08 00:05:37;;;;;;;9.35;1.42;;;14.70;99.90;;;;;;5037839;28;20037;-81
2022/07/08 00:08:03;;;;;;;6.32;0.90;;;14.70;99.90;;;;;;5034825;28;20737;-81
2022/07/08 00:10:28;;;;;;;6.13;0.68;;;14.70;99.90;;;;;;5035996;28;20060;-81
2022/07/08 00:12:54;;;;;;;5.68;0.90;;;14.70;99.90;;;;;;5032886;28;20040;-81
2022/07/08 00:15:21;;;;;;;11.50;1.77;;;14.60;99.90;;;;;;5037530;28;20086;-81
2022/07/08 00:17:47;;;;;;;5.95;0.98;;;14.50;99.90;;;;;;5035991;28;20030;-81
2022/07/08 00:20:12;;;;;;;9.02;1.77;;;14.50;99.90;;;;;;5033506;28;20053;-81
2022/07/08 00:22:38;;;;;;;11.25;2.20;;;14.50;99.90;;;;;;5050443;28;20052;-81
2022/07/08 00:25:04;;;;;;;5.72;1.27;;;14.40;99.90;;;;;;5030950;28;20111;-81
2022/07/08 00:27:30;;;;;;;9.43;1.40;;;14.40;99.90;;;;;;5021223;28;20068;-81
2022/07/08 00:29:56;;;;;;;6.80;1.08;;;14.40;99.90;;;;;;5016632;28;20083;-81
2022/07/08 00:32:21;;;;;;;7.47;0.80;;;14.40;99.90;;;;;;5033430;28;20038;-81
2022/07/08 00:34:47;;;;;;;12.13;1.33;;;14.30;99.90;;;;;;5035910;28;20060;-81
2022/07/08 00:37:12;;;;;;;9.93;1.67;;;14.40;99.90;;;;;;5038055;28;20041;-81
2022/07/08 00:39:38;;;;;;;5.10;1.35;;;14.30;99.90;;;;;;5034787;28;20080;-81
2022/07/08 00:42:05;;;;;;;5.43;1.25;;;14.50;99.90;;;;;;5034425;28;20052;-80
2022/07/08 00:44:31;;;;;;;12.75;1.48;;;14.30;99.90;;;;;;5033529;28;20033;-81
2022/07/08 00:46:57;;;;;;;5.95;1.20;;;14.30;99.90;;;;;;5035784;28;20064;-81
2022/07/08 00:49:23;;;;;;;5.88;1.20;;;14.30;99.90;;;;;;5036271;28;20045;-80
2022/07/08 00:51:49;;;;;;;6.07;1.40;;;14.30;99.90;;;;;;5035503;28;20033;-80
2022/07/08 00:54:18;;;;;;;5.50;1.02;;;14.30;99.90;;;;;;5034546;28;20041;-81
2022/07/08 00:56:45;;;;;;;6.45;1.60;;;14.70;99.90;;;;;;5035296;28;20041;-81
2022/07/08 00:59:11;;;;;;;5.95;1.02;;;14.30;99.90;;;;;;5034655;28;20038;-81
2022/07/08 01:01:37;;;;;;;4.72;0.70;;;14.40;99.90;;;;;;5019525;28;20130;-81
2022/07/08 01:04:03;;;;;;;8.85;1.48;;;14.30;99.90;;;;;;5037344;28;20083;-81
2022/07/08 01:06:32;;;;;;;6.20;1.08;;;14.30;99.90;;;;;;5034769;28;20049;-81
2022/07/08 01:08:58;;;;;;;8.20;1.42;;;14.40;99.90;;;;;;5016028;28;20149;-81
2022/07/08 01:11:25;;;;;;;9.98;1.67;;;14.40;99.90;;;;;;5037861;28;20052;-81
2022/07/08 01:13:52;;;;;;;8.40;1.33;;;14.30;99.90;;;;;;5038017;28;20038;-81
2022/07/08 01:16:17;;;;;;;8.80;1.23;;;14.40;99.90;;;;;;5036516;28;20152;-81
2022/07/08 01:18:43;;;;;;;8.68;1.40;;;14.30;99.90;;;;;;5034938;28;20053;-81
2022/07/08 01:21:09;;;;;;;5.97;1.08;;;14.40;99.90;;;;;;5034106;28;20041;-81
2022/07/08 01:23:35;;;;;;;8.75;1.17;;;14.40;99.90;;;;;;5009518;28;20086;-82
2022/07/08 01:26:11;;;;;;;7.25;1.00;;;14.30;99.90;;;;;;5017759;28;20042;-82
2022/07/08 01:28:38;;;;;;;10.30;1.38;;;14.30;99.90;;;;;;5028635;28;20056;-81
2022/07/08 01:31:04;;;;;;;6.95;1.25;;;14.30;99.90;;;;;;5035782;28;20044;-81
2022/07/08 01:33:33;;;;;;;9.27;1.40;;;14.20;99.90;;;;;;5033965;28;20046;-82
2022/07/08 01:35:59;;;;;;;8.27;1.10;;;14.20;99.90;;;;;;5018533;28;20033;-81
2022/07/08 01:38:25;;;;;;;8.93;1.20;;;14.10;99.90;;;;;;5030240;28;20044;-82
2022/07/08 01:40:50;;;;;;;5.32;1.02;;;14.10;99.90;;;;;;5033342;28;20124;-81
2022/07/08 01:43:16;;;;;;;10.25;1.10;;;14.00;99.90;;;;;;5015875;28;20095;-81
2022/07/08 01:45:41;;;;;;;4.47;0.73;;;14.00;99.90;;;;;;5017299;28;20045;-81
2022/07/08 01:48:07;;;;;;;9.38;1.52;;;14.00;99.90;;;;;;5013999;28;20041;-81
2022/07/08 01:50:33;;;;;;;8.02;1.10;;;13.90;99.90;;;;;;5032727;28;20041;-81
2022/07/08 01:52:59;;;;;;;6.32;1.00;;;13.90;99.90;;;;;;5033938;28;20053;-81
2022/07/08 01:55:24;;;;;;;7.60;1.20;;;13.90;99.90;;;;;;5032077;28;20455;-81
2022/07/08 01:57:50;;;;;;;6.03;0.95;;;13.80;99.90;;;;;;5013417;28;20456;-81
2022/07/08 02:00:16;;;;;;;5.97;0.90;;;13.80;99.90;;;;;;5035330;28;20049;-81
2022/07/08 02:02:41;;;;;;;8.77;1.20;;;13.70;99.90;;;;;;5037088;28;20056;-81
2022/07/08 02:05:09;;;;;;;7.00;1.05;;;13.70;99.90;;;;;;5034863;28;20080;-81
2022/07/08 02:07:35;;;;;;;5.40;1.02;;;13.60;99.90;;;;;;5032781;28;20060;-82
2022/07/08 02:10:01;;;;;;;7.32;1.08;;;13.60;99.90;;;;;;5019819;28;20353;-81
2022/07/08 02:12:27;;;;;;;7.68;1.60;;;13.60;99.90;;;;;;5035901;28;20051;-81
2022/07/08 02:14:55;;;;;;;5.07;0.95;;;13.50;99.90;;;;;;5036125;28;20442;-81
2022/07/08 02:17:23;;;;;;;8.98;1.10;;;13.50;99.90;;;;;;5016101;28;20148;-81
2022/07/08 02:19:49;;;;;;;7.20;1.27;;;13.50;99.90;;;;;;5034294;28;20049;-82
2022/07/08 02:22:15;;;;;;;4.97;1.30;;;13.40;99.90;;;;;;5031741;28;20105;-81
2022/07/08 02:24:42;;;;;;;6.53;1.60;;;13.30;99.90;;;;;;5034817;28;20468;-81
2022/07/08 02:27:08;;;;;;;9.45;1.35;;;13.40;99.90;;;;;;5032548;28;20814;-81
2022/07/08 02:29:34;;;;;;;7.97;1.30;;;13.30;99.90;;;;;;5016530;28;20053;-82
2022/07/08 02:32:00;;;;;;;7.97;1.20;;;13.30;99.90;;;;;;5016613;28;20045;-82
2022/07/08 02:34:26;;;;;;;11.07;1.23;;;13.20;99.90;;;;;;5031626;28;20041;-81
2022/07/08 02:36:52;;;;;;;6.30;1.40;;;13.20;99.90;;;;;;5031615;28;20045;-81
2022/07/08 02:39:18;;;;;;;6.45;1.25;;;13.20;99.90;;;;;;5030297;28;20040;-81
2022/07/08 02:41:44;;;;;;;4.88;1.10;;;13.20;99.90;;;;;;5034505;28;20061;-81
2022/07/08 02:44:10;;;;;;;5.22;1.02;;;13.10;99.90;;;;;;5019660;28;20128;-81
2022/07/08 02:46:37;;;;;;;6.40;1.02;;;13.10;99.90;;;;;;5036021;28;20052;-81
2022/07/08 02:49:03;;;;;;;5.47;1.25;;;13.10;99.90;;;;;;5031905;28;20042;-81
2022/07/08 02:51:28;;;;;;;11.63;1.33;;;13.10;99.90;;;;;;5034116;28;20030;-81
2022/07/08 02:53:54;;;;;;;8.35;1.70;;;13.10;99.90;;;;;;5033813;28;20041;-81
2022/07/08 02:56:20;;;;;;;10.05;1.70;;;13.10;99.90;;;;;;5017135;28;20045;-81
2022/07/08 02:58:45;;;;;;;7.65;1.40;;;13.00;99.90;;;;;;5031685;28;20048;-81
2022/07/08 03:01:11;;;;;;;8.38;1.05;;;13.00;99.90;;;;;;5034449;28;20092;-81
2022/07/08 03:03:36;;;;;;;7.90;1.40;;;13.00;99.90;;;;;;5032836;28;20131;-81
2022/07/08 03:06:02;;;;;;;7.13;1.50;;;13.00;99.90;;;;;;5033150;28;20042;-81
2022/07/08 03:08:28;;;;;;;5.25;0.90;;;13.00;99.90;;;;;;5032200;28;20042;-81
2022/07/08 03:10:54;;;;;;;7.00;1.02;;;12.90;99.90;;;;;;5031242;28;20045;-81
2022/07/08 03:13:19;;;;;;;8.10;1.20;;;12.90;99.90;;;;;;5029388;28;20948;-81
2022/07/08 03:15:45;;;;;;;10.15;1.20;;;12.90;99.90;;;;;;5032012;28;20038;-81
2022/07/08 03:18:11;;;;;;;9.50;1.55;;;12.80;99.90;;;;;;5033454;28;20041;-81
2022/07/08 03:20:37;;;;;;;8.77;0.90;;;12.80;99.90;;;;;;5030070;28;20053;-80
2022/07/08 03:23:03;;;;;;;4.97;1.00;;;12.90;99.90;;;;;;5030597;28;20105;-81
2022/07/08 03:25:29;;;;;;;5.85;1.00;;;12.80;99.90;;;;;;5035070;28;20049;-81
2022/07/08 03:27:55;;;;;;;8.20;1.02;;;12.80;99.90;;;;;;5032340;28;20063;-81
2022/07/08 03:30:21;;;;;;;8.40;1.10;;;12.80;99.90;;;;;;5032654;28;20381;-81
2022/07/08 03:32:47;;;;;;;8.23;2.33;;;12.80;99.90;;;;;;5029646;28;20128;-81
2022/07/08 03:35:13;;;;;;;7.25;1.17;;;12.80;99.90;;;;;;5013581;28;20045;-81
2022/07/08 03:37:43;;;;;;;6.75;1.23;;;12.80;99.90;;;;;;5033679;28;20476;-81
2022/07/08 03:42:53;;;;;;;11.77;1.67;;;12.90;99.90;;;;;;5031141;28;20510;-82
2022/07/08 03:45:19;;;;;;;11.60;1.65;;;12.90;99.90;;;;;;5031786;28;20049;-81
2022/07/08 03:47:44;;;;;;;3.78;0.90;;;12.90;99.90;;;;;;5032453;28;20045;-81
2022/07/08 03:50:10;;;;;;;8.95;1.50;;;12.90;99.90;;;;;;5033534;28;20060;-81
2022/07/08 03:52:36;;;;;;;4.57;1.00;;;12.90;99.90;;;;;;5033474;28;20045;-81
2022/07/08 03:55:01;;;;;;;5.30;1.75;;;12.90;99.90;;;;;;5035950;28;20045;-81
2022/07/08 03:57:27;;;;;;;4.82;1.52;;;12.90;99.90;;;;;;5034167;28;20045;-81
2022/07/08 03:59:53;;;;;;;6.47;1.20;;;12.90;99.90;;;;;;5017181;28;20053;-81
2022/07/08 04:02:18;;;;;;;11.27;1.45;;;13.00;99.90;;;;;;5032101;28;20045;-82
2022/07/08 04:04:44;;;;;;;8.65;1.45;;;13.00;99.90;;;;;;5035545;28;20052;-82
2022/07/08 04:07:10;;;;;;;9.68;1.27;;;13.10;99.90;;;;;;5012257;28;20049;-81
2022/07/08 04:09:35;;;;;;;6.93;1.02;;;13.10;99.90;;;;;;5017212;28;20084;-81
2022/07/08 04:12:01;;;;;;;6.93;1.35;;;13.10;99.90;;;;;;5013874;28;20049;-81
2022/07/08 04:14:26;;;;;;;6.70;1.67;;;13.10;99.90;;;;;;5015422;28;20037;-82
2022/07/08 04:16:52;;;;;;;6.40;1.00;;;13.30;99.90;;;;;;5033147;28;20042;-81
2022/07/08 04:19:17;;;;;;;5.85;1.10;;;13.30;99.90;;;;;;5031880;28;20037;-81
2022/07/08 04:21:43;;;;;;;8.55;1.58;;;13.40;99.90;;;;;;5034018;28;20049;-81
2022/07/08 04:24:09;;;;;;;6.35;0.73;;;13.50;99.90;;;;;;5032322;28;20109;-81
2022/07/08 04:26:34;;;;;;;7.28;1.02;;;13.50;99.90;;;;;;5030859;28;20093;-81
2022/07/08 04:29:00;;;;;;;8.18;1.15;;;13.50;99.90;;;;;;5034350;28;20552;-81
2022/07/08 04:31:27;;;;;;;7.88;1.48;;;13.70;99.90;;;;;;5032536;28;20053;-81
2022/07/08 04:35:00;;;;;;;7.65;1.13;;;13.70;99.90;;;;;;5031654;28;20068;-80
2022/07/08 04:37:54;;;;;;;5.45;0.98;;;14.30;99.90;;;;;;4956325;28;21356;-80
2022/07/08 04:40:20;;;;;;;7.82;1.52;;;14.30;99.90;;;;;;5011753;28;20136;-81
2022/07/08 04:42:46;;;;;;;6.70;1.38;;;14.50;99.90;;;;;;5030136;28;20126;-81
2022/07/08 04:45:11;;;;;;;4.20;0.95;;;14.70;99.90;;;;;;5032096;28;20034;-79
2022/07/08 04:47:37;;;;;;;6.57;1.67;;;15.60;99.90;;;;;;5032843;28;20041;-79
2022/07/08 04:50:03;;;;;;;8.02;1.02;;;17.00;99.90;;;;;;5025123;28;20049;-82
2022/07/08 04:56:32;;;;;;;3.42;0.82;;;19.80;99.90;;;;;;4976222;28;20050;-86
2022/07/08 04:59:08;;;;;;;9.02;1.50;;;21.50;99.90;;;;;;5006583;28;20041;-87
2022/07/08 05:01:34;;;;;;;7.72;1.13;;;22.60;99.90;;;;;;5010114;28;20042;-82
2022/07/08 05:04:00;;;;;;;7.03;1.33;;;23.60;99.90;;;;;;5024313;28;20045;-83
2022/07/08 05:06:33;;;;;;;5.70;1.27;;;24.40;99.90;;;;;;5026903;28;20103;-85
2022/07/08 05:08:59;;;;;;;7.93;1.05;;;24.30;99.90;;;;;;5013221;28;20037;-83
2022/07/08 05:11:25;;;;;;;5.47;1.10;;;23.60;99.90;;;;;;5030680;28;20048;-83
2022/07/08 05:13:50;;;;;;;6.45;1.02;;;22.50;99.90;;;;;;5032664;28;20074;-84
2022/07/08 05:16:16;;;;;;;4.95;0.98;;;21.30;99.90;;;;;;5029749;28;20037;-82
2022/07/08 05:18:41;;;;;;;4.88;0.93;;;20.50;99.90;;;;;;5046162;28;20091;-82
2022/07/08 05:21:07;;;;;;;8.63;1.13;;;19.70;99.90;;;;;;5028537;28;20045;-82
2022/07/08 05:23:33;;;;;;;6.00;1.02;;;19.20;99.90;;;;;;5031201;28;20061;-83
2022/07/08 05:25:59;;;;;;;9.02;1.27;;;18.60;99.90;;;;;;5032559;28;20037;-83
2022/07/08 05:28:24;;;;;;;6.43;1.05;;;18.10;99.90;;;;;;5029753;28;20053;-82
2022/07/08 05:30:50;;;;;;;5.50;0.82;;;17.70;99.90;;;;;;5029712;28;20060;-83
2022/07/08 05:33:16;;;;;;;7.78;1.52;;;17.50;99.90;;;;;;5031193;28;20128;-82
2022/07/08 05:35:41;;;;;;;10.27;1.02;;;17.30;99.90;;;;;;5031551;28;20045;-81
2022/07/08 05:38:07;;;;;;;10.57;1.10;;;17.20;99.90;;;;;;5010383;28;20041;-80
2022/07/08 05:40:32;;;;;;;6.57;1.23;;;17.10;99.90;;;;;;5018602;28;20566;-81
2022/07/08 05:42:58;;;;;;;9.32;1.02;;;17.20;99.90;;;;;;5025701;28;20049;-84
2022/07/08 05:45:24;;;;;;;10.10;1.17;;;17.40;99.90;;;;;;5026396;28;20038;-82
2022/07/08 05:47:50;;;;;;;5.68;0.93;;;17.70;99.90;;;;;;5027045;28;20412;-81
2022/07/08 05:50:16;;;;;;;6.35;1.30;;;18.10;99.90;;;;;;5027021;28;20045;-83
2022/07/08 05:52:41;;;;;;;6.47;0.80;;;18.60;99.90;;;;;;5024764;28;20085;-83
2022/07/08 05:55:07;;;;;;;6.47;0.80;;;18.80;99.90;;;;;;5022828;28;20045;-86
2022/07/08 05:57:33;;;;;;;6.22;1.38;;;19.20;99.90;;;;;;5024825;28;20049;-82
2022/07/08 05:59:58;;;;;;;7.18;1.73;;;19.60;99.90;;;;;;5025162;28;20041;-82
2022/07/08 06:02:25;;;;;;;9.85;1.52;;;20.10;99.90;;;;;;5024972;28;20048;-82
2022/07/08 06:04:50;;;;;;;6.15;1.10;;;20.50;99.90;;;;;;5026621;28;20087;-81
2022/07/08 06:07:16;;;;;;;6.72;1.23;;;20.80;99.90;;;;;;5027126;28;20042;-83
2022/07/08 06:09:41;;;;;;;7.72;1.30;;;21.00;99.90;;;;;;5024057;28;20037;-84
2022/07/08 06:12:08;;;;;;;6.45;1.58;;;21.00;99.90;;;;;;5024847;28;20038;-83
2022/07/08 06:14:33;;;;;;;5.88;0.90;;;21.00;99.90;;;;;;5011649;28;20049;-83
2022/07/08 06:16:59;;;;;;;11.82;1.83;;;20.70;99.90;;;;;;5004648;28;20038;-82
2022/07/08 06:19:24;;;;;;;4.78;1.30;;;20.70;99.90;;;;;;5025657;28;20068;-83
2022/07/08 06:21:50;;;;;;;6.95;1.27;;;20.60;99.90;;;;;;5026906;28;20045;-83
2022/07/08 06:24:16;;;;;;;10.10;2.03;;;20.50;99.90;;;;;;5029423;28;20045;-82
2022/07/08 06:26:43;;;;;;;8.40;1.83;;;20.40;99.90;;;;;;5025245;28;20057;-81
2022/07/08 06:29:09;;;;;;;9.23;1.23;;;20.20;99.90;;;;;;5010142;28;20120;-82
2022/07/08 06:31:38;;;;;;;7.05;1.42;;;20.00;99.90;;;;;;5025124;28;20069;-82
2022/07/08 06:34:04;;;;;;;9.50;1.52;;;19.70;99.90;;;;;;5026635;28;20126;-81
2022/07/08 06:36:30;;;;;;;9.98;1.85;;;19.50;99.90;;;;;;5024380;28;20038;-81
2022/07/08 06:38:55;;;;;;;10.25;1.60;;;19.50;99.90;;;;;;5026983;28;20037;-81
2022/07/08 06:41:21;;;;;;;3.88;1.05;;;19.40;99.90;;;;;;5025885;28;20049;-82
2022/07/08 06:43:46;;;;;;;8.95;2.03;;;19.50;99.90;;;;;;5024993;28;20052;-82
2022/07/08 06:46:13;;;;;;;10.23;1.83;;;19.40;99.90;;;;;;5027441;28;20037;-81
2022/07/08 06:48:39;;;;;;;7.45;1.40;;;19.40;99.90;;;;;;5026600;28;20567;-82
2022/07/08 06:51:05;;;;;;;6.88;2.17;;;19.40;99.90;;;;;;5025992;28;20053;-82
2022/07/08 06:54:34;;;;;;;6.85;1.52;;;19.40;99.90;;;;;;5024249;28;20396;-82
2022/07/08 06:56:16;;;;;;;7.78;1.25;;;19.40;99.90;;;;;;5025198;28;20081;-82
2022/07/08 06:58:42;;;;;;;7.05;1.67;;;19.30;99.90;;;;;;5028468;28;20037;-82
2022/07/08 07:01:07;;;;;;;12.32;1.55;;;19.30;99.90;;;;;;5029427;28;20376;-82
2022/07/08 07:03:33;;;;;;;6.78;1.00;;;19.20;99.90;;;;;;5026386;28;20045;-82
2022/07/08 07:05:58;;;;;;;7.07;1.10;;;19.10;99.90;;;;;;5009561;28;20404;-81
2022/07/08 07:08:24;;;;;;;8.98;1.75;;;19.00;99.90;;;;;;5031376;28;20033;-82
2022/07/08 07:10:49;;;;;;;6.18;1.40;;;19.00;99.90;;;;;;5025558;28;20049;-82
2022/07/08 07:13:15;;;;;;;7.03;1.17;;;19.00;99.90;;;;;;5030957;28;20033;-82
2022/07/08 07:15:41;;;;;;;8.05;1.00;;;18.90;99.90;;;;;;5028210;28;20118;-82
2022/07/08 07:18:08;;;;;;;6.43;1.13;;;18.90;99.90;;;;;;5030810;28;20139;-82
2022/07/08 07:20:35;;;;;;;8.95;1.42;;;19.10;99.90;;;;;;5031300;28;20649;-81
2022/07/08 07:23:00;;;;;;;11.05;1.80;;;19.00;99.90;;;;;;5031772;28;20534;-82
2022/07/08 07:25:26;;;;;;;6.07;1.15;;;19.00;99.90;;;;;;5029059;28;20025;-81
2022/07/08 07:27:52;;;;;;;7.78;1.33;;;19.00;99.90;;;;;;5029773;28;20571;-81
2022/07/08 07:30:20;;;;;;;9.20;2.25;;;18.90;99.90;;;;;;5029907;28;20049;-81
2022/07/08 07:32:46;;;;;;;5.72;1.00;;;19.10;99.90;;;;;;5032181;28;20048;-81
2022/07/08 07:35:11;;;;;;;5.32;0.90;;;19.20;99.90;;;;;;5032164;28;20045;-81
2022/07/08 07:37:37;;;;;;;8.68;1.60;;;19.30;99.90;;;;;;5011738;28;20053;-82
2022/07/08 07:40:04;;;;;;;7.25;1.00;;;19.40;99.90;;;;;;5029452;28;20040;-82
2022/07/08 07:42:30;;;;;;;9.60;1.40;;;19.40;99.90;;;;;;5027322;28;20558;-82
2022/07/08 07:44:55;;;;;;;7.13;1.27;;;19.50;99.90;;;;;;5026618;28;20116;-84
2022/07/08 07:48:10;;;;;;;6.35;1.40;;;19.60;99.90;;;;;;5028413;28;20038;-86
2022/07/08 07:50:51;;;;;;;10.98;2.28;;;19.70;99.90;;;;;;5013241;28;20060;-82
2022/07/08 07:53:17;;;;;;;5.90;1.30;;;19.70;99.90;;;;;;5029478;28;20120;-82
2022/07/08 07:55:42;;;;;;;8.50;1.30;;;19.70;99.90;;;;;;5030521;28;20073;-82
2022/07/08 07:58:08;;;;;;;8.35;1.30;;;19.70;99.90;;;;;;5028508;28;20053;-82
2022/07/08 08:00:34;;;;;;;5.47;1.20;;;19.60;99.90;;;;;;5028523;28;20084;-81
2022/07/08 08:02:59;;;;;;;8.02;1.02;;;19.60;99.90;;;;;;5030056;28;20625;-82
2022/07/08 08:05:25;;;;;;;6.70;1.20;;;19.50;99.90;;;;;;5027017;28;20820;-82
2022/07/08 08:07:50;;;;;;;9.27;1.20;;;19.40;99.90;;;;;;5028687;28;20088;-83
2022/07/08 08:10:16;;;;;;;6.55;1.15;;;19.50;99.90;;;;;;5028241;28;20080;-82
2022/07/08 08:12:42;;;;;;;7.30;1.10;;;19.90;99.90;;;;;;5029035;28;20060;-83
2022/07/08 08:15:08;;;;;;;12.10;2.03;;;19.30;99.90;;;;;;5029639;28;20132;-83
2022/07/08 08:17:55;;;;;;;5.88;0.90;;;19.40;99.90;;;;;;5026913;28;20775;-82
2022/07/08 08:20:23;;;;;;;9.70;1.10;;;19.30;99.90;;;;;;5028757;28;20045;-82
2022/07/08 08:22:49;;;;;;;6.72;1.20;;;19.40;99.90;;;;;;5028379;28;20080;-83
2022/07/08 08:25:15;;;;;;;7.78;1.30;;;19.60;99.90;;;;;;5027810;28;20045;-83
2022/07/08 08:27:40;;;;;;;6.50;1.00;;;19.80;99.90;;;;;;5028313;28;20119;-82
2022/07/08 08:30:07;;;;;;;6.10;0.98;;;19.90;99.90;;;;;;5028693;28;20069;-83
2022/07/08 08:32:33;;;;;;;9.68;1.30;;;20.10;99.90;;;;;;5028493;28;20477;-83
2022/07/08 08:34:58;;;;;;;5.13;1.55;;;20.10;99.90;;;;;;5031204;28;20058;-82
2022/07/08 08:37:25;;;;;;;4.18;1.00;;;20.30;99.90;;;;;;5027260;28;20045;-81
2022/07/08 08:39:51;;;;;;;6.47;1.27;;;20.40;99.90;;;;;;5028482;28;20069;-82
2022/07/08 08:42:19;;;;;;;8.73;1.15;;;20.40;99.90;;;;;;5027530;28;20463;-82
2022/07/08 08:44:45;;;;;;;5.68;1.05;;;20.50;99.90;;;;;;5031179;28;20134;-82
2022/07/08 08:47:13;;;;;;;8.02;1.00;;;20.60;99.90;;;;;;5024454;28;20112;-82
2022/07/08 08:49:40;;;;;;;9.43;1.50;;;20.80;99.90;;;;;;5026738;28;20080;-82
2022/07/08 08:52:15;;;;;;;4.10;0.95;;;20.80;99.90;;;;;;5029466;28;20036;-82
2022/07/08 08:54:42;;;;;;;6.45;1.90;;;20.90;99.90;;;;;;5027456;28;20053;-82
2022/07/08 08:57:08;;;;;;;6.70;1.45;;;20.90;99.90;;;;;;5026900;28;20523;-82
2022/07/08 08:59:35;;;;;;;6.32;1.02;;;20.90;99.90;;;;;;5027229;28;20045;-83
2022/07/08 09:02:01;;;;;;;4.60;1.40;;;20.80;99.90;;;;;;5010171;28;20094;-83
2022/07/08 09:04:29;;;;;;;5.13;1.50;;;20.80;99.90;;;;;;5028081;28;20457;-81
2022/07/08 09:06:54;;;;;;;5.45;1.77;;;20.70;99.90;;;;;;5029422;28;20727;-84
2022/07/08 09:09:20;;;;;;;6.93;1.50;;;20.80;99.90;;;;;;5025646;28;20041;-81
2022/07/08 09:11:46;;;;;;;5.13;1.05;;;20.70;99.90;;;;;;5030090;28;20071;-83
2022/07/08 09:14:17;;;;;;;5.32;1.73;;;20.60;99.90;;;;;;5029365;28;20049;-82
2022/07/08 09:17:08;;;;;;;7.32;1.20;;;20.70;99.90;;;;;;5029031;28;20492;-82
2022/07/08 09:19:34;;;;;;;7.88;1.60;;;20.60;99.90;;;;;;5009717;28;20037;-83
2022/07/08 09:22:00;;;;;;;5.43;1.20;;;20.60;99.90;;;;;;5030920;28;20064;-83
2022/07/08 09:24:27;;;;;;;6.53;0.90;;;20.60;99.90;;;;;;5029705;28;20041;-81
2022/07/08 09:26:56;;;;;;;4.32;0.77;;;20.60;99.90;;;;;;5041297;28;20500;-82
2022/07/08 09:29:23;;;;;;;5.05;1.10;;;20.60;99.90;;;;;;5027035;28;20472;-82
2022/07/08 09:31:49;;;;;;;5.75;1.55;;;20.70;99.90;;;;;;5028595;28;20826;-81
2022/07/08 09:34:16;;;;;;;5.15;1.17;;;20.80;99.90;;;;;;5027834;28;20373;-84
2022/07/08 09:36:46;;;;;;;4.57;1.38;;;20.80;99.90;;;;;;5027027;28;20057;-82
2022/07/08 09:39:28;;;;;;;4.05;1.00;;;20.80;99.90;;;;;;5025594;28;20469;-83
2022/07/08 09:41:54;;;;;;;5.35;1.45;;;20.80;99.90;;;;;;5025854;28;20048;-82
2022/07/08 09:44:25;;;;;;;3.95;0.90;;;20.90;99.90;;;;;;5026697;28;20836;-83
2022/07/08 09:46:51;;;;;;;12.38;1.35;;;20.90;99.90;;;;;;5045700;28;20045;-81
2022/07/08 09:49:33;;;;;;;6.35;0.90;;;20.90;99.90;;;;;;5009028;28;20056;-83
2022/07/08 09:51:59;;;;;;;5.57;1.45;;;21.00;99.90;;;;;;5029294;28;20083;-82
2022/07/08 09:54:27;;;;;;;5.63;1.38;;;21.10;99.90;;;;;;5029710;28;20045;-81
2022/07/08 09:56:58;;;;;;;8.88;1.30;;;21.10;99.90;;;;;;5027902;28;20057;-82
2022/07/08 09:59:24;;;;;;;4.38;0.93;;;21.20;99.90;;;;;;5023802;28;20157;-83
2022/07/08 10:01:51;;;;;;;5.78;1.00;;;21.20;99.90;;;;;;5029743;28;20535;-82
2022/07/08 10:04:18;;;;;;;5.57;1.10;;;21.20;99.90;;;;;;5027919;28;20053;-82
2022/07/08 10:06:44;;;;;;;7.60;1.33;;;21.10;99.90;;;;;;5031731;28;20053;-82
2022/07/08 10:09:10;;;;;;;10.10;1.15;;;21.10;99.90;;;;;;5032562;28;20057;-82
2022/07/08 10:11:37;;;;;;;6.65;1.13;;;21.00;99.90;;;;;;5023689;28;20079;-83
2022/07/08 10:14:08;;;;;;;5.60;1.20;;;20.90;99.90;;;;;;5026375;28;20562;-83
2022/07/08 10:16:35;;;;;;;5.65;0.98;;;20.90;99.90;;;;;;5025835;28;20045;-82
2022/07/08 10:19:03;;;;;;;9.10;2.08;;;20.90;99.90;;;;;;5027609;28;20179;-83
2022/07/08 10:21:32;;;;;;;8.05;2.30;;;20.90;99.90;;;;;;5026613;28;20045;-82
2022/07/08 10:23:58;;;;;;;5.07;1.55;;;21.00;99.90;;;;;;5024708;28;20484;-84
2022/07/08 10:26:31;;;;;;;4.78;1.30;;;21.00;99.90;;;;;;5025188;28;20438;-83
2022/07/08 10:29:16;;;;;;;6.13;1.13;;;20.60;99.90;;;;;;5027704;28;20056;-83
2022/07/08 10:31:51;;;;;;;6.88;1.40;;;21.00;99.90;;;;;;5007613;28;20458;-83
2022/07/08 10:34:21;;;;;;;5.82;0.80;;;21.10;99.90;;;;;;5008966;28;20069;-81
2022/07/08 10:36:53;;;;;;;9.23;1.10;;;21.10;99.90;;;;;;5025092;28;20037;-83
2022/07/08 10:39:36;;;;;;;8.02;1.10;;;21.10;99.90;;;;;;5023017;28;20048;-85
2022/07/08 10:42:03;;;;;;;5.93;1.50;;;21.20;99.90;;;;;;5022294;28;20103;-84
2022/07/08 10:44:44;;;;;;;5.50;0.75;;;21.20;99.90;;;;;;5021447;28;20037;-83
2022/07/08 10:47:15;;;;;;;5.00;1.17;;;21.20;99.90;;;;;;5002438;28;20049;-83
2022/07/08 10:49:46;;;;;;;6.93;1.42;;;21.30;99.90;;;;;;5024930;28;20119;-83
2022/07/08 10:52:15;;;;;;;3.75;1.00;;;21.30;99.90;;;;;;5002422;28;20047;-83
2022/07/08 10:54:42;;;;;;;6.88;0.93;;;21.40;99.90;;;;;;5008655;28;20432;-83
2022/07/08 10:57:35;;;;;;;5.07;1.23;;;21.50;99.90;;;;;;5024051;28;20045;-84
2022/07/08 11:00:10;;;;;;;7.35;1.52;;;21.60;99.90;;;;;;5011396;28;20045;-83
2022/07/08 11:02:44;;;;;;;8.48;1.00;;;21.70;99.90;;;;;;5022051;28;20179;-84
2022/07/08 11:05:41;;;;;;;4.20;0.98;;;21.80;99.90;;;;;;5004071;28;20038;-84
2022/07/08 11:08:19;;;;;;;5.85;1.67;;;21.80;99.90;;;;;;5022862;28;20073;-83
2022/07/08 11:10:46;;;;;;;6.40;0.85;;;21.80;99.90;;;;;;5024325;28;20056;-83
2022/07/08 11:13:12;;;;;;;6.10;1.38;;;21.90;99.90;;;;;;5023290;28;20043;-83
2022/07/08 11:15:37;;;;;;;5.15;1.02;;;21.90;99.90;;;;;;5007949;28;20033;-83
2022/07/08 11:18:03;;;;;;;4.50;1.27;;;21.80;99.90;;;;;;5020989;28;20466;-83
2022/07/08 11:20:33;;;;;;;6.57;1.23;;;21.80;99.90;;;;;;5025668;28;20152;-83
2022/07/08 11:23:04;;;;;;;5.20;1.63;;;21.90;99.90;;;;;;5023499;28;20057;-82
2022/07/08 11:25:30;;;;;;;3.47;0.90;;;21.80;99.90;;;;;;5020552;28;20060;-83
2022/07/08 11:28:00;;;;;;;10.80;1.80;;;21.90;99.90;;;;;;5010156;28;20046;-83
2022/07/08 11:30:29;;;;;;;3.30;0.88;;;21.90;99.90;;;;;;5023926;28;20064;-82
2022/07/08 11:32:55;;;;;;;3.90;0.77;;;22.50;99.90;;;;;;5037472;28;20075;-82
2022/07/08 11:35:24;;;;;;;4.88;1.20;;;21.90;99.90;;;;;;5018446;28;20041;-83
2022/07/08 11:37:52;;;;;;;4.78;0.80;;;22.10;99.90;;;;;;5022257;28;20064;-83
2022/07/08 11:40:18;;;;;;;8.00;1.25;;;22.20;99.90;;;;;;5002674;28;20041;-83
2022/07/08 11:43:25;;;;;;;8.10;1.95;;;22.20;99.90;;;;;;5022838;28;20052;-84
2022/07/08 11:49:59;;;;;;;4.35;0.77;;;22.30;99.90;;;;;;5025053;28;20036;-85
2022/07/08 11:56:50;;;;;;;3.05;1.02;;;22.30;99.90;;;;;;5029560;28;20492;-84
2022/07/08 12:00:31;;;;;;;4.65;1.15;;;22.50;99.90;;;;;;5008069;28;20053;-84
2022/07/08 12:03:36;;;;;;;5.05;0.98;;;22.80;99.90;;;;;;4991295;28;20045;-84
2022/07/08 12:10:49;;;;;;;2.95;0.95;;;23.50;99.90;;;;;;4990177;28;20516;-84
2022/07/08 12:13:45;;;;;;;3.50;1.02;;;23.50;99.90;;;;;;5017495;28;20054;-85
2022/07/08 12:20:10;;;;;;;4.97;1.80;;;23.20;99.90;;;;;;5012781;28;20041;-83
2022/07/08 12:23:08;;;;;;;6.63;1.15;;;23.10;99.90;;;;;;4995877;28;20034;-84
2022/07/08 12:26:33;;;;;;;2.88;0.60;;;23.20;99.90;;;;;;5030885;28;20179;-84
2022/07/08 12:33:17;;;;;;;7.32;1.77;;;23.70;99.90;;;;;;5029866;28;20049;-84
2022/07/08 12:37:01;;;;;;;6.45;1.25;;;23.70;99.90;;;;;;5021600;28;20623;-85
2022/07/08 12:39:46;;;;;;;4.13;1.20;;;23.90;99.90;;;;;;5021133;28;20053;-84
2022/07/08 12:42:28;;;;;;;3.80;0.90;;;23.90;99.90;;;;;;5026375;28;20037;-84
2022/07/08 12:44:55;;;;;;;7.47;1.42;;;23.80;99.90;;;;;;5008520;28;20045;-83
2022/07/08 12:47:24;;;;;;;6.05;1.60;;;23.80;99.90;;;;;;5023124;28;20478;-84
2022/07/08 12:49:55;;;;;;;6.35;1.00;;;23.70;99.90;;;;;;5010039;28;20042;-84
2022/07/08 12:53:04;;;;;;;4.57;1.08;;;24.00;99.90;;;;;;5008486;28;20053;-85
2022/07/08 12:56:55;;;;;;;5.43;1.33;;;24.10;99.90;;;;;;4898533;29;20124;-87
2022/07/08 13:04:01;;;;;;;5.38;1.63;;;23.80;99.90;;;;;;4913203;29;20076;-85
2022/07/08 13:32:31;;;;;;;6.55;1.95;;;23.60;99.90;;;;;;4902433;29;20573;-82
2022/07/08 13:34:56;;;;;;;5.72;1.42;;;23.50;99.90;;;;;;4947626;29;20067;-80
2022/07/08 13:37:22;;;;;;;4.35;1.60;;;23.50;99.90;;;;;;4935276;28;20120;-82
2022/07/08 13:39:47;;;;;;;5.28;1.58;;;23.30;99.90;;;;;;4967742;28;20379;-82
2022/07/08 13:42:13;;;;;;;8.50;1.20;;;23.40;99.90;;;;;;4991036;28;20092;-82
2022/07/08 13:44:38;;;;;;;6.18;1.42;;;23.30;99.90;;;;;;5027458;28;20556;-81
2022/07/08 13:47:04;;;;;;;6.57;1.63;;;23.30;99.90;;;;;;5025284;28;21844;-82
2022/07/08 13:49:29;;;;;;;5.43;1.20;;;23.30;99.90;;;;;;5023401;28;20451;-82
2022/07/08 13:51:55;;;;;;;11.52;1.52;;;23.20;99.90;;;;;;5021424;28;20072;-82
2022/07/08 13:54:21;;;;;;;3.10;0.95;;;23.10;99.90;;;;;;5024098;28;20081;-81